createdAt,value
2018-03-29T00:02:45.038Z,14.93
2018-03-29T00:07:39.562Z,18.10
2018-03-29T00:12:33.941Z,15.30
2018-03-29T00:17:28.344Z,15.63
2018-03-29T00:22:22.692Z,18.87
2018-03-29T00:27:17.030Z,15.67
2018-03-29T00:32:12.198Z,21.23
2018-03-29T00:37:06.565Z,17.53
2018-03-29T00:42:01.691Z,20.93
2018-03-29T00:46:56.122Z,18.50
2018-03-29T00:51:50.507Z,20.23
2018-03-29T00:56:44.847Z,16.83
2018-03-29T01:01:39.209Z,20.60
2018-03-29T01:06:33.588Z,19.73
2018-03-29T01:11:28.688Z,19.30
2018-03-29T01:16:24.320Z,19.50
2018-03-29T01:21:18.477Z,20.97
2018-03-29T01:26:12.882Z,23.53
2018-03-29T01:31:07.206Z,22.27
2018-03-29T01:36:01.558Z,18.03
2018-03-29T01:40:55.884Z,20.97
2018-03-29T01:45:50.260Z,20.37
2018-03-29T01:50:45.380Z,19.10
2018-03-29T01:55:39.751Z,20.83
2018-03-29T02:00:34.091Z,21.10
2018-03-29T02:05:28.626Z,20.37
2018-03-29T02:10:22.986Z,20.67
2018-03-29T02:15:18.154Z,20.37
2018-03-29T02:20:12.521Z,20.93
2018-03-29T02:25:07.569Z,17.53
2018-03-29T02:30:02.127Z,19.67
2018-03-29T02:34:56.899Z,18.20
2018-03-29T02:39:51.279Z,19.33
2018-03-29T02:44:46.664Z,20.17
2018-03-29T02:49:41.970Z,19.17
2018-03-29T02:54:36.647Z,21.23
2018-03-29T02:59:31.026Z,17.03
2018-03-29T03:04:25.420Z,17.73
2018-03-29T03:09:20.641Z,17.03
2018-03-29T03:14:15.780Z,17.83
2018-03-29T03:19:10.141Z,19.37
2018-03-29T03:24:04.254Z,18.23
2018-03-29T03:28:59.620Z,19.73
2018-03-29T03:33:53.964Z,18.83
2018-03-29T03:38:48.351Z,19.63
2018-03-29T03:43:42.700Z,18.17
2018-03-29T03:48:37.076Z,18.00
2018-03-29T03:53:32.262Z,19.40
2018-03-29T03:58:27.539Z,19.83
2018-03-29T04:03:22.795Z,23.40
2018-03-29T04:08:17.153Z,23.90
2018-03-29T04:13:12.280Z,22.07
2018-03-29T04:18:07.526Z,26.93
2018-03-29T04:23:02.068Z,22.13
2018-03-29T04:27:56.424Z,24.07
2018-03-29T04:32:50.877Z,22.20
2018-03-29T04:37:45.218Z,22.27
2018-03-29T04:42:40.352Z,23.43
2018-03-29T04:47:35.018Z,21.57
2018-03-29T04:52:29.369Z,21.97
2018-03-29T04:57:23.733Z,21.33
2018-03-29T05:02:18.089Z,23.07
2018-03-29T05:07:12.466Z,22.37
2018-03-29T05:12:06.828Z,26.00
2018-03-29T05:17:01.315Z,26.90
2018-03-29T05:21:55.649Z,26.57
2018-03-29T05:26:50.617Z,26.83
2018-03-29T05:31:44.984Z,28.43
2018-03-29T05:36:40.124Z,27.73
2018-03-29T05:41:35.421Z,24.80
2018-03-29T05:46:30.550Z,26.30
2018-03-29T05:51:25.712Z,26.73
2018-03-29T05:56:20.094Z,25.53
2018-03-29T06:01:15.232Z,25.17
2018-03-29T06:06:09.605Z,36.97
2018-03-29T06:11:04.064Z,22.87
2018-03-29T06:16:04.244Z,24.03
2018-03-29T06:20:59.437Z,24.33
2018-03-29T06:25:53.829Z,25.47
2018-03-29T06:30:49.185Z,24.43
2018-03-29T06:35:44.307Z,25.37
2018-03-29T06:40:39.452Z,26.90
2018-03-29T06:45:33.868Z,31.73
2018-03-29T06:50:28.247Z,30.30
2018-03-29T06:55:22.615Z,31.13
2018-03-29T07:00:17.013Z,32.60
2018-03-29T07:05:13.117Z,30.97
2018-03-29T07:10:07.470Z,33.40
2018-03-29T07:15:02.654Z,31.77
2018-03-29T07:19:57.306Z,27.67
2018-03-29T07:24:52.446Z,24.67
2018-03-29T07:29:46.998Z,23.90
2018-03-29T07:34:41.354Z,25.23
2018-03-29T07:39:35.782Z,22.70
2018-03-29T07:44:30.308Z,23.80
2018-03-29T07:49:24.822Z,21.93
2018-03-29T07:54:19.554Z,19.97
2018-03-29T07:59:13.947Z,20.30
2018-03-29T08:04:08.390Z,21.00
2018-03-29T08:09:02.750Z,21.30
2018-03-29T08:13:57.116Z,26.40
2018-03-29T08:18:51.457Z,25.47
2018-03-29T08:23:45.830Z,21.00
2018-03-29T08:28:40.175Z,21.80
2018-03-29T08:33:35.317Z,20.00
2018-03-29T08:38:30.451Z,19.90
2018-03-29T08:43:24.986Z,19.10
2018-03-29T08:48:19.478Z,10.43
2018-03-29T08:53:13.839Z,11.20
2018-03-29T08:58:08.940Z,8.77
2018-03-29T09:03:03.310Z,7.97
2018-03-29T09:07:58.050Z,6.60
2018-03-29T09:12:52.727Z,6.40
2018-03-29T09:17:47.095Z,7.07
2018-03-29T09:22:42.376Z,6.10
2018-03-29T09:27:36.727Z,6.80
2018-03-29T09:32:31.184Z,12.10
2018-03-29T09:37:25.582Z,7.87
2018-03-29T09:42:20.242Z,8.40
2018-03-29T09:47:14.640Z,7.37
2018-03-29T09:52:09.760Z,7.60
2018-03-29T09:57:04.127Z,6.30
2018-03-29T10:01:58.110Z,4.53
2018-03-29T10:07:05.289Z,6.47
2018-03-29T10:11:59.642Z,5.37
2018-03-29T10:16:54.830Z,4.33
2018-03-29T10:21:49.257Z,4.70
2018-03-29T10:26:43.900Z,5.13
2018-03-29T10:31:38.355Z,6.80
2018-03-29T10:36:32.764Z,5.90
2018-03-29T10:41:27.131Z,5.67
2018-03-29T10:46:21.535Z,6.77
2018-03-29T10:51:15.964Z,5.83
2018-03-29T10:56:10.350Z,7.23
2018-03-29T11:01:04.745Z,7.20
2018-03-29T11:06:00.032Z,6.07
2018-03-29T11:10:55.432Z,5.60
2018-03-29T11:15:49.779Z,6.13
2018-03-29T11:20:45.067Z,4.33
2018-03-29T11:25:39.641Z,5.00
2018-03-29T11:30:33.979Z,5.70
2018-03-29T11:35:28.345Z,4.13
2018-03-29T11:40:22.744Z,6.17
2018-03-29T11:45:17.162Z,4.77
2018-03-29T11:50:11.577Z,4.97
2018-03-29T11:55:06.114Z,6.37
2018-03-29T12:00:01.430Z,5.30
2018-03-29T12:04:55.801Z,3.80
2018-03-29T12:09:50.418Z,3.43
2018-03-29T12:14:44.798Z,2.70
2018-03-29T12:19:39.211Z,3.60
2018-03-29T12:24:33.568Z,5.07
2018-03-29T12:29:28.664Z,3.40
2018-03-29T12:34:23.044Z,3.30
2018-03-29T12:39:17.530Z,4.10
2018-03-29T12:44:11.954Z,4.20
2018-03-29T12:49:06.431Z,3.20
2018-03-29T12:54:01.229Z,4.83
2018-03-29T12:58:55.604Z,3.37
2018-03-29T13:03:49.987Z,3.93
2018-03-29T13:08:45.459Z,4.27
2018-03-29T13:13:40.752Z,3.97
2018-03-29T13:18:36.607Z,6.70
2018-03-29T13:23:31.712Z,5.60
2018-03-29T13:28:26.075Z,5.03
2018-03-29T13:33:20.610Z,5.53
2018-03-29T13:38:15.105Z,6.03
2018-03-29T13:43:09.526Z,4.13
2018-03-29T13:48:05.020Z,5.33
2018-03-29T13:52:59.395Z,5.17
2018-03-29T13:57:53.495Z,4.83
2018-03-29T14:02:47.875Z,5.77
2018-03-29T14:07:43.446Z,5.97
2018-03-29T14:12:37.780Z,5.57
2018-03-29T14:17:32.147Z,7.13
2018-03-29T14:22:26.516Z,4.60
2018-03-29T14:27:21.630Z,6.33
2018-03-29T14:32:16.191Z,3.47
2018-03-29T14:37:10.546Z,5.33
2018-03-29T14:42:05.683Z,4.57
2018-03-29T14:47:01.127Z,3.90
2018-03-29T14:51:55.754Z,6.47
2018-03-29T14:56:50.100Z,4.30
2018-03-29T15:01:44.645Z,4.27
2018-03-29T15:06:39.044Z,5.40
2018-03-29T15:11:33.409Z,3.87
2018-03-29T15:16:28.819Z,4.00
2018-03-29T15:21:23.267Z,4.53
2018-03-29T15:26:17.608Z,3.80
2018-03-29T15:31:12.010Z,4.57
2018-03-29T15:36:06.362Z,6.47
2018-03-29T15:41:00.751Z,5.93
2018-03-29T15:45:55.882Z,4.93
2018-03-29T15:50:51.059Z,8.23
2018-03-29T15:55:45.683Z,4.73
2018-03-29T16:00:40.047Z,5.43
2018-03-29T16:05:34.419Z,4.73
2018-03-29T16:10:28.880Z,5.63
2018-03-29T16:15:23.353Z,4.03
2018-03-29T16:20:17.720Z,6.47
2018-03-29T16:25:12.914Z,2.73
2018-03-29T16:30:07.401Z,7.50
2018-03-29T16:35:01.759Z,3.53
2018-03-29T16:39:56.096Z,6.30
2018-03-29T16:44:50.455Z,4.77
2018-03-29T16:49:45.578Z,4.57
2018-03-29T16:54:40.139Z,7.33
2018-03-29T16:59:34.608Z,4.10
2018-03-29T17:04:28.974Z,5.40
2018-03-29T17:09:23.762Z,7.83
2018-03-29T17:14:18.111Z,10.33
2018-03-29T17:19:12.512Z,5.50
2018-03-29T17:24:07.352Z,4.80
2018-03-29T17:29:01.915Z,7.10
2018-03-29T17:33:56.844Z,7.27
2018-03-29T17:38:51.961Z,6.63
2018-03-29T17:43:47.091Z,7.60
2018-03-29T17:48:41.529Z,6.27
2018-03-29T17:53:35.924Z,5.33
2018-03-29T17:58:30.363Z,5.70
2018-03-29T18:03:25.183Z,4.87
2018-03-29T18:08:19.562Z,5.73
2018-03-29T18:13:14.309Z,5.37
2018-03-29T18:18:09.446Z,7.67
2018-03-29T18:23:04.698Z,6.70
2018-03-29T18:27:59.463Z,7.17
2018-03-29T18:32:54.608Z,9.60
2018-03-29T18:37:49.158Z,8.00
2018-03-29T18:42:43.513Z,5.93
2018-03-29T18:47:38.859Z,6.97
2018-03-29T18:52:33.560Z,6.80
2018-03-29T18:57:27.918Z,6.60
2018-03-29T19:02:22.279Z,9.97
2018-03-29T19:07:16.626Z,8.37
2018-03-29T19:12:11.130Z,17.83
2018-03-29T19:17:06.006Z,5.40
2018-03-29T19:22:00.333Z,5.50
2018-03-29T19:26:54.668Z,4.73
2018-03-29T19:31:49.858Z,7.40
2018-03-29T19:36:44.340Z,18.27
2018-03-29T19:41:38.758Z,5.17
2018-03-29T19:46:33.227Z,6.50
2018-03-29T19:51:27.713Z,4.43
2018-03-29T19:56:22.892Z,8.23
2018-03-29T20:01:17.455Z,5.57
2018-03-29T20:06:11.591Z,4.30
2018-03-29T20:11:05.689Z,5.73
2018-03-29T20:16:00.063Z,5.60
2018-03-29T20:20:54.404Z,5.77
2018-03-29T20:25:48.954Z,7.47
2018-03-29T20:30:43.319Z,5.57
2018-03-29T20:35:37.746Z,4.23
2018-03-29T20:40:32.996Z,5.53
2018-03-29T20:45:28.661Z,5.40
2018-03-29T20:50:23.044Z,9.70
2018-03-29T20:55:17.844Z,6.93
2018-03-29T21:00:12.440Z,7.63
2018-03-29T21:05:06.788Z,7.90
2018-03-29T21:10:01.214Z,6.13
2018-03-29T21:14:56.461Z,11.33
2018-03-29T21:19:51.574Z,6.90
2018-03-29T21:24:46.774Z,6.53
2018-03-29T21:29:41.228Z,6.23
2018-03-29T21:34:35.595Z,7.97
2018-03-29T21:39:30.718Z,7.37
2018-03-29T21:44:25.878Z,10.20
2018-03-29T21:49:21.138Z,6.63
2018-03-29T21:54:15.549Z,7.43
2018-03-29T21:59:09.922Z,8.73
2018-03-29T22:04:04.386Z,9.07
2018-03-29T22:08:58.737Z,8.00
2018-03-29T22:13:53.571Z,7.37
2018-03-29T22:18:47.908Z,6.67
2018-03-29T22:23:42.357Z,8.30
2018-03-29T22:28:36.796Z,10.63
2018-03-29T22:33:32.329Z,7.67
2018-03-29T22:38:26.980Z,5.93
2018-03-29T22:43:21.510Z,6.73
2018-03-29T22:48:15.786Z,6.73
2018-03-29T22:53:10.168Z,6.17
2018-03-29T22:58:04.514Z,9.47
2018-03-29T23:02:58.982Z,8.40
2018-03-29T23:07:53.734Z,5.80
2018-03-29T23:12:48.927Z,7.13
2018-03-29T23:17:44.174Z,7.87
2018-03-29T23:22:39.751Z,6.33
2018-03-29T23:27:35.340Z,8.50
2018-03-29T23:32:30.960Z,6.27
2018-03-29T23:37:26.867Z,9.70
2018-03-29T23:42:21.763Z,7.80
2018-03-29T23:47:17.938Z,7.90
2018-03-29T23:52:13.655Z,6.67
2018-03-29T23:57:08.469Z,6.00
